Time;durP1;ratioP1;P1;durP2;ratioP2;P2;SDS_P1;SDS_P2;PMS_P1;PMS_P2;Temp;Humidity;BMP_temperature;BMP_pressure;BME280_temperature;BME280_humidity;BME280_pressure;Samples;Min_cycle;Max_cycle;Signal;HPM_P1;HPM_P2
2021/03/27 00:00:54;;;;;;;7.77;6.03;;;;;;;;;;5077991;28;20517;-72
2021/03/27 00:03:27;;;;;;;10.07;6.30;;;;;;;;;;5076291;28;20448;-72
2021/03/27 00:06:01;;;;;;;8.80;5.80;;;;;;;;;;5076468;28;20452;-72
2021/03/27 00:08:31;;;;;;;11.70;6.50;;;;;;;;;;5076885;28;20500;-72
2021/03/27 00:11:01;;;;;;;9.10;5.80;;;;;;;;;;5075946;28;20463;-72
2021/03/27 00:13:34;;;;;;;9.93;5.77;;;;;;;;;;5076715;28;20458;-72
2021/03/27 00:16:08;;;;;;;8.57;5.97;;;;;;;;;;5077119;28;20944;-72
2021/03/27 00:18:41;;;;;;;11.07;6.10;;;;;;;;;;5076228;28;20460;-72
2021/03/27 00:21:14;;;;;;;12.30;5.93;;;;;;;;;;5076358;28;20927;-72
2021/03/27 00:23:46;;;;;;;8.00;5.20;;;;;;;;;;5076885;28;20708;-72
2021/03/27 00:26:16;;;;;;;9.03;5.47;;;;;;;;;;5076668;28;20484;-72
2021/03/27 00:28:46;;;;;;;8.27;6.37;;;;;;;;;;5076933;28;20523;-72
2021/03/27 00:31:17;;;;;;;7.47;5.87;;;;;;;;;;5076432;28;20463;-72
2021/03/27 00:33:46;;;;;;;9.73;6.00;;;;;;;;;;5080010;28;20447;-72
2021/03/27 00:36:17;;;;;;;11.17;6.17;;;;;;;;;;5080392;28;20914;-72
2021/03/27 00:38:49;;;;;;;7.27;5.30;;;;;;;;;;5080823;28;20547;-72
2021/03/27 00:41:21;;;;;;;7.77;5.70;;;;;;;;;;5080389;28;20514;-72
2021/03/27 00:43:50;;;;;;;7.83;5.50;;;;;;;;;;5081029;28;20475;-72
2021/03/27 00:46:19;;;;;;;9.40;5.27;;;;;;;;;;5080279;28;20704;-72
2021/03/27 00:48:49;;;;;;;12.67;5.33;;;;;;;;;;5079381;28;20459;-72
2021/03/27 00:51:20;;;;;;;10.33;6.60;;;;;;;;;;5079921;28;20456;-72
2021/03/27 00:53:50;;;;;;;9.23;6.23;;;;;;;;;;5080217;28;20520;-73
2021/03/27 00:56:20;;;;;;;8.67;6.20;;;;;;;;;;5079397;28;20498;-72
2021/03/27 00:58:51;;;;;;;11.13;6.57;;;;;;;;;;5080625;28;20455;-72
2021/03/27 01:01:25;;;;;;;9.30;6.10;;;;;;;;;;5079480;28;20958;-72
2021/03/27 01:03:55;;;;;;;15.33;6.07;;;;;;;;;;5080051;28;20551;-72
2021/03/27 01:06:28;;;;;;;10.13;6.47;;;;;;;;;;5080242;28;20838;-72
2021/03/27 01:08:57;;;;;;;9.33;5.27;;;;;;;;;;5079580;28;20472;-72
2021/03/27 01:11:27;;;;;;;7.93;5.90;;;;;;;;;;5080100;28;20547;-72
2021/03/27 01:13:57;;;;;;;9.20;6.10;;;;;;;;;;5080612;28;20483;-72
2021/03/27 01:16:26;;;;;;;8.67;7.00;;;;;;;;;;5078333;28;20480;-72
2021/03/27 01:18:57;;;;;;;11.13;5.40;;;;;;;;;;5079405;28;20462;-72
2021/03/27 01:21:28;;;;;;;6.77;5.13;;;;;;;;;;5078698;28;20456;-72
2021/03/27 01:23:57;;;;;;;12.10;6.60;;;;;;;;;;5078963;28;20468;-72
2021/03/27 01:26:28;;;;;;;8.20;6.50;;;;;;;;;;5078498;28;20465;-72
2021/03/27 01:29:02;;;;;;;8.67;5.70;;;;;;;;;;5078041;28;20444;-72
2021/03/27 01:31:35;;;;;;;7.30;5.13;;;;;;;;;;5079206;28;20593;-71
2021/03/27 01:34:04;;;;;;;10.63;5.60;;;;;;;;;;5079500;28;20471;-72
2021/03/27 01:36:38;;;;;;;11.50;6.43;;;;;;;;;;5079277;28;20491;-72
2021/03/27 01:39:10;;;;;;;10.10;6.20;;;;;;;;;;5079498;28;20483;-72
2021/03/27 01:41:41;;;;;;;12.50;5.70;;;;;;;;;;5079052;28;20465;-72
2021/03/27 01:44:16;;;;;;;8.07;5.63;;;;;;;;;;5078555;28;20453;-72
2021/03/27 01:46:55;;;;;;;10.93;6.20;;;;;;;;;;5078879;28;20468;-72
2021/03/27 01:49:28;;;;;;;10.07;7.07;;;;;;;;;;5078612;28;20729;-72
2021/03/27 01:52:13;;;;;;;9.47;5.93;;;;;;;;;;5078716;28;20735;-72
2021/03/27 01:54:48;;;;;;;10.77;5.70;;;;;;;;;;5079683;28;20467;-72
2021/03/27 01:57:27;;;;;;;9.47;6.30;;;;;;;;;;5079981;28;21098;-72
2021/03/27 01:59:57;;;;;;;9.27;5.93;;;;;;;;;;5078563;28;20456;-72
2021/03/27 02:02:30;;;;;;;9.20;6.60;;;;;;;;;;5079281;28;20466;-72
2021/03/27 02:05:01;;;;;;;8.40;5.83;;;;;;;;;;5078553;28;21166;-72
2021/03/27 02:07:33;;;;;;;8.67;5.77;;;;;;;;;;5078570;28;20461;-72
2021/03/27 02:10:04;;;;;;;10.20;7.27;;;;;;;;;;5078930;28;20456;-72
2021/03/27 02:12:38;;;;;;;7.50;5.20;;;;;;;;;;5078333;28;20554;-72
2021/03/27 02:15:08;;;;;;;9.33;5.57;;;;;;;;;;5078249;28;20782;-72
2021/03/27 02:17:42;;;;;;;10.27;6.20;;;;;;;;;;5078225;28;20496;-72
2021/03/27 02:20:28;;;;;;;8.87;5.73;;;;;;;;;;5077720;28;20453;-72
2021/03/27 02:23:01;;;;;;;8.60;5.60;;;;;;;;;;5078004;28;20491;-72
2021/03/27 02:25:48;;;;;;;9.30;6.50;;;;;;;;;;5078431;28;20476;-72
2021/03/27 02:28:23;;;;;;;7.60;5.47;;;;;;;;;;5077871;28;20471;-72
2021/03/27 02:30:55;;;;;;;8.70;5.57;;;;;;;;;;5078280;28;20448;-72
2021/03/27 02:33:29;;;;;;;10.73;6.03;;;;;;;;;;5077276;28;20762;-72
2021/03/27 02:36:04;;;;;;;12.50;6.70;;;;;;;;;;5077917;28;20866;-72
2021/03/27 02:38:36;;;;;;;9.60;5.80;;;;;;;;;;5078077;28;20464;-72
2021/03/27 02:41:09;;;;;;;10.37;5.60;;;;;;;;;;5077795;28;20451;-72
2021/03/27 02:43:40;;;;;;;12.00;6.23;;;;;;;;;;5077450;28;20875;-72
2021/03/27 02:46:15;;;;;;;9.63;5.93;;;;;;;;;;5077865;28;20521;-72
2021/03/27 02:48:53;;;;;;;8.43;5.47;;;;;;;;;;5077666;28;20879;-72
2021/03/27 02:51:24;;;;;;;7.50;5.23;;;;;;;;;;5077638;28;20452;-72
2021/03/27 02:54:00;;;;;;;7.13;5.60;;;;;;;;;;5078286;28;20502;-72
2021/03/27 02:56:31;;;;;;;11.17;6.30;;;;;;;;;;5077472;28;20781;-72
2021/03/27 02:59:14;;;;;;;8.50;6.07;;;;;;;;;;5077718;28;20441;-72
2021/03/27 03:01:45;;;;;;;12.33;6.00;;;;;;;;;;5077877;28;20721;-72
2021/03/27 03:04:16;;;;;;;11.57;6.87;;;;;;;;;;5077510;28;20547;-72
2021/03/27 03:06:47;;;;;;;11.17;5.87;;;;;;;;;;5077466;28;20463;-72
2021/03/27 03:09:15;;;;;;;11.43;6.00;;;;;;;;;;5077944;28;20461;-72
2021/03/27 03:11:50;;;;;;;7.67;5.23;;;;;;;;;;5077347;28;20817;-72
2021/03/27 03:14:23;;;;;;;9.10;5.93;;;;;;;;;;5077908;28;20460;-72
2021/03/27 03:17:11;;;;;;;8.43;5.83;;;;;;;;;;5077748;28;20490;-72
2021/03/27 03:19:44;;;;;;;8.83;5.90;;;;;;;;;;5077726;28;20459;-72
2021/03/27 03:22:16;;;;;;;9.90;6.57;;;;;;;;;;5078099;28;20467;-72
2021/03/27 03:24:46;;;;;;;10.50;5.60;;;;;;;;;;5077167;28;20487;-72
2021/03/27 03:27:16;;;;;;;9.93;5.87;;;;;;;;;;5069240;28;20477;-71
2021/03/27 03:29:52;;;;;;;11.73;6.87;;;;;;;;;;5057899;28;20733;-72
2021/03/27 03:32:40;;;;;;;7.90;5.53;;;;;;;;;;5057114;28;20623;-72
2021/03/27 03:35:21;;;;;;;10.33;6.00;;;;;;;;;;5057255;28;20518;-72
2021/03/27 03:37:55;;;;;;;9.40;5.70;;;;;;;;;;5057213;28;20765;-72
2021/03/27 03:40:27;;;;;;;12.50;5.50;;;;;;;;;;5056788;28;20457;-72
2021/03/27 03:43:03;;;;;;;10.77;6.50;;;;;;;;;;5057365;28;20523;-72
2021/03/27 03:45:43;;;;;;;7.17;4.93;;;;;;;;;;5057136;28;20465;-72
2021/03/27 03:48:17;;;;;;;11.20;6.30;;;;;;;;;;5056985;28;20488;-72
2021/03/27 03:50:48;;;;;;;9.33;5.93;;;;;;;;;;5057018;28;20445;-72
2021/03/27 03:53:31;;;;;;;9.47;6.40;;;;;;;;;;5056880;28;20461;-72
2021/03/27 03:56:01;;;;;;;6.63;5.70;;;;;;;;;;5056342;28;20484;-72
2021/03/27 03:58:47;;;;;;;9.00;5.20;;;;;;;;;;5056497;28;20494;-71
2021/03/27 04:01:16;;;;;;;9.17;5.97;;;;;;;;;;5056600;28;20782;-72
2021/03/27 04:03:50;;;;;;;10.33;5.83;;;;;;;;;;5057031;28;20728;-72
2021/03/27 04:06:20;;;;;;;8.33;5.97;;;;;;;;;;5057118;28;20754;-72
2021/03/27 04:08:53;;;;;;;8.37;5.60;;;;;;;;;;5056873;28;20527;-72
2021/03/27 04:11:51;;;;;;;9.70;6.20;;;;;;;;;;5056334;28;20927;-71
2021/03/27 04:14:32;;;;;;;9.63;5.37;;;;;;;;;;4975749;28;20889;-72
2021/03/27 04:17:02;;;;;;;8.80;5.70;;;;;;;;;;5045956;28;20485;-72
2021/03/27 04:19:30;;;;;;;6.50;5.10;;;;;;;;;;5057031;28;20469;-72
2021/03/27 04:22:05;;;;;;;8.63;5.70;;;;;;;;;;5056440;28;20461;-72
2021/03/27 04:24:34;;;;;;;10.27;4.50;;;;;;;;;;5057219;28;20471;-72
2021/03/27 04:27:05;;;;;;;8.20;4.33;;;;;;;;;;5056949;28;20449;-72
2021/03/27 04:29:37;;;;;;;9.43;5.50;;;;;;;;;;5056667;28;20479;-72
2021/03/27 04:32:20;;;;;;;8.87;5.87;;;;;;;;;;5057340;28;20748;-71
2021/03/27 04:34:49;;;;;;;14.03;6.67;;;;;;;;;;5056798;28;20522;-72
2021/03/27 04:37:22;;;;;;;7.90;5.67;;;;;;;;;;5057176;28;20489;-72
2021/03/27 04:39:51;;;;;;;9.60;7.20;;;;;;;;;;5058045;28;20462;-72
2021/03/27 04:42:21;;;;;;;8.60;7.10;;;;;;;;;;5056845;28;20461;-72
2021/03/27 04:44:52;;;;;;;8.43;6.40;;;;;;;;;;5057237;28;20462;-73
2021/03/27 04:47:21;;;;;;;14.23;6.37;;;;;;;;;;5057123;28;20471;-72
2021/03/27 04:49:53;;;;;;;8.27;5.60;;;;;;;;;;5056429;28;20473;-72
2021/03/27 04:52:26;;;;;;;8.53;7.00;;;;;;;;;;5057240;28;20460;-72
2021/03/27 04:54:56;;;;;;;6.90;4.20;;;;;;;;;;5057801;28;20480;-72
2021/03/27 04:57:26;;;;;;;8.90;5.93;;;;;;;;;;5056340;28;20488;-72
2021/03/27 05:00:08;;;;;;;7.93;6.70;;;;;;;;;;5057441;28;20461;-72
2021/03/27 05:02:38;;;;;;;10.00;6.07;;;;;;;;;;5041123;28;20462;-72
2021/03/27 05:05:09;;;;;;;4.47;2.77;;;;;;;;;;5056301;28;20481;-72
2021/03/27 05:07:43;;;;;;;3.60;2.20;;;;;;;;;;5057322;28;20780;-72
2021/03/27 05:10:13;;;;;;;3.40;1.60;;;;;;;;;;5056555;28;20471;-72
2021/03/27 05:12:56;;;;;;;2.40;1.20;;;;;;;;;;5056365;28;20458;-72
2021/03/27 05:15:26;;;;;;;2.17;1.33;;;;;;;;;;5056654;28;20466;-72
2021/03/27 05:18:14;;;;;;;2.20;1.37;;;;;;;;;;5056004;28;20862;-72
2021/03/27 05:20:43;;;;;;;2.47;1.33;;;;;;;;;;5059578;28;20453;-72
2021/03/27 05:23:14;;;;;;;2.03;1.23;;;;;;;;;;5059890;28;20461;-72
2021/03/27 05:26:02;;;;;;;3.10;1.87;;;;;;;;;;5059539;28;20486;-72
2021/03/27 05:28:47;;;;;;;3.00;1.57;;;;;;;;;;5036501;28;20754;-72
2021/03/27 05:31:22;;;;;;;3.57;1.73;;;;;;;;;;5046589;28;20460;-72
2021/03/27 05:33:55;;;;;;;3.67;1.70;;;;;;;;;;5059235;28;20514;-72
2021/03/27 05:36:33;;;;;;;2.87;1.40;;;;;;;;;;5060037;28;20455;-72
2021/03/27 05:39:09;;;;;;;3.30;1.87;;;;;;;;;;5059245;28;20524;-72
2021/03/27 05:41:48;;;;;;;2.67;1.50;;;;;;;;;;5059350;28;20454;-72
2021/03/27 05:44:33;;;;;;;3.47;1.70;;;;;;;;;;5059553;28;20567;-72
2021/03/27 05:47:21;;;;;;;1.80;1.50;;;;;;;;;;5059641;28;20449;-72
2021/03/27 05:50:09;;;;;;;3.43;1.63;;;;;;;;;;5060182;28;20801;-72
2021/03/27 05:52:54;;;;;;;2.77;1.47;;;;;;;;;;5034310;28;20454;-72
2021/03/27 05:55:30;;;;;;;1.90;1.40;;;;;;;;;;5059747;28;20461;-72
2021/03/27 05:58:05;;;;;;;3.97;2.10;;;;;;;;;;5058528;28;20489;-72
2021/03/27 06:00:36;;;;;;;4.30;2.40;;;;;;;;;;5058808;28;20895;-72
2021/03/27 06:03:22;;;;;;;6.57;2.20;;;;;;;;;;5057858;28;20462;-72
2021/03/27 06:06:05;;;;;;;2.90;2.27;;;;;;;;;;5058420;28;20454;-72
2021/03/27 06:08:39;;;;;;;2.60;1.80;;;;;;;;;;5058341;28;20870;-72
2021/03/27 06:11:17;;;;;;;3.10;1.97;;;;;;;;;;5058344;28;20457;-72
2021/03/27 06:14:04;;;;;;;4.80;3.07;;;;;;;;;;5057798;28;20529;-72
2021/03/27 06:16:49;;;;;;;6.93;3.00;;;;;;;;;;5058177;28;20463;-72
2021/03/27 06:19:35;;;;;;;3.30;1.83;;;;;;;;;;5057943;28;20460;-72
2021/03/27 06:22:09;;;;;;;3.00;2.13;;;;;;;;;;5078807;28;20464;-72
2021/03/27 06:24:45;;;;;;;5.40;2.60;;;;;;;;;;5079543;28;20496;-72
2021/03/27 06:27:23;;;;;;;4.37;2.27;;;;;;;;;;5078635;28;20460;-72
2021/03/27 06:30:09;;;;;;;3.10;1.43;;;;;;;;;;5065045;28;20454;-72
2021/03/27 06:32:54;;;;;;;3.30;2.07;;;;;;;;;;5060310;28;20864;-72
2021/03/27 06:35:25;;;;;;;3.10;2.10;;;;;;;;;;5046272;28;20474;-72
2021/03/27 06:38:06;;;;;;;2.90;1.80;;;;;;;;;;5058297;28;20492;-72
2021/03/27 06:40:41;;;;;;;4.80;2.70;;;;;;;;;;5058685;28;20480;-74
2021/03/27 06:43:32;;;;;;;3.37;2.13;;;;;;;;;;5058471;28;20463;-73
2021/03/27 06:46:13;;;;;;;4.00;2.97;;;;;;;;;;5036872;28;20475;-72
2021/03/27 06:48:58;;;;;;;4.40;3.10;;;;;;;;;;5056032;28;20460;-72
2021/03/27 06:51:43;;;;;;;6.77;2.97;;;;;;;;;;5057851;28;20455;-72
2021/03/27 06:54:20;;;;;;;3.47;2.23;;;;;;;;;;5057280;28;20474;-72
2021/03/27 06:56:58;;;;;;;5.70;3.77;;;;;;;;;;5057826;28;20463;-72
2021/03/27 06:59:40;;;;;;;4.00;2.30;;;;;;;;;;5057620;28;20855;-72
2021/03/27 07:02:34;;;;;;;2.73;1.97;;;;;;;;;;5055136;28;20473;-73
2021/03/27 07:05:31;;;;;;;3.90;2.50;;;;;;;;;;5078243;28;20465;-72
2021/03/27 07:08:01;;;;;;;5.03;3.67;;;;;;;;;;5077862;28;20530;-72
2021/03/27 07:10:56;;;;;;;5.37;3.27;;;;;;;;;;5077453;28;20450;-72
2021/03/27 07:13:41;;;;;;;4.10;3.07;;;;;;;;;;5078522;28;20464;-71
2021/03/27 07:16:17;;;;;;;6.27;3.47;;;;;;;;;;5078708;28;20536;-72
2021/03/27 07:19:02;;;;;;;5.93;3.90;;;;;;;;;;5077595;28;20500;-71
2021/03/27 07:21:38;;;;;;;4.47;3.80;;;;;;;;;;5076822;28;20803;-72
2021/03/27 07:24:13;;;;;;;5.57;3.57;;;;;;;;;;5076394;28;20466;-72
2021/03/27 07:27:08;;;;;;;5.77;2.77;;;;;;;;;;5077580;28;20698;-72
2021/03/27 07:30:00;;;;;;;5.70;3.60;;;;;;;;;;5077205;28;20461;-73
2021/03/27 07:32:57;;;;;;;6.50;3.73;;;;;;;;;;5057441;28;20499;-74
2021/03/27 07:35:33;;;;;;;4.87;3.07;;;;;;;;;;5015491;28;20925;-73
2021/03/27 07:38:12;;;;;;;6.30;4.80;;;;;;;;;;5050825;28;20766;-73
2021/03/27 07:40:47;;;;;;;4.43;3.33;;;;;;;;;;5058082;28;20733;-72
2021/03/27 07:43:32;;;;;;;6.40;4.20;;;;;;;;;;5056740;28;20454;-73
2021/03/27 07:46:19;;;;;;;6.33;4.00;;;;;;;;;;5041914;28;20535;-72
2021/03/27 07:49:01;;;;;;;8.60;4.70;;;;;;;;;;5057667;28;20462;-72
2021/03/27 07:51:48;;;;;;;6.43;4.23;;;;;;;;;;5056052;28;20471;-73
2021/03/27 07:54:39;;;;;;;5.40;3.67;;;;;;;;;;5077923;28;20567;-72
2021/03/27 07:57:20;;;;;;;11.33;5.30;;;;;;;;;;5077259;28;20479;-72
2021/03/27 08:03:28;;;;;;;5.43;4.23;;;;;;;;;;5071416;28;20883;-72
2021/03/27 08:06:04;;;;;;;5.73;4.43;;;;;;;;;;5077840;28;20486;-72
2021/03/27 08:08:40;;;;;;;10.13;5.23;;;;;;;;;;5077665;28;20654;-72
2021/03/27 08:11:15;;;;;;;7.27;5.00;;;;;;;;;;5076510;28;20559;-72
2021/03/27 08:13:59;;;;;;;7.50;4.70;;;;;;;;;;5070019;28;20502;-72
2021/03/27 08:16:36;;;;;;;7.97;4.70;;;;;;;;;;5057791;28;20879;-72
2021/03/27 08:19:30;;;;;;;7.40;5.50;;;;;;;;;;5056733;28;20575;-72
2021/03/27 08:22:07;;;;;;;8.30;4.63;;;;;;;;;;5057660;28;20461;-72
2021/03/27 08:24:40;;;;;;;9.47;5.77;;;;;;;;;;5056311;28;20545;-72
2021/03/27 08:27:21;;;;;;;8.33;5.07;;;;;;;;;;5057577;28;20455;-72
2021/03/27 08:30:07;;;;;;;6.53;4.03;;;;;;;;;;5056425;28;20460;-72
2021/03/27 08:32:43;;;;;;;10.00;4.50;;;;;;;;;;5055464;28;20454;-72
2021/03/27 08:35:44;;;;;;;7.07;4.50;;;;;;;;;;5056335;28;20466;-71
2021/03/27 08:38:35;;;;;;;7.50;5.13;;;;;;;;;;5056608;28;20482;-72
2021/03/27 08:41:21;;;;;;;3.70;2.60;;;;;;;;;;5054890;28;20558;-71
2021/03/27 08:44:08;;;;;;;6.33;3.80;;;;;;;;;;5058884;28;20465;-72
2021/03/27 08:46:52;;;;;;;5.97;3.33;;;;;;;;;;5057623;28;20463;-72
2021/03/27 08:49:40;;;;;;;3.80;2.43;;;;;;;;;;5054894;28;20466;-71
2021/03/27 08:52:22;;;;;;;9.93;4.00;;;;;;;;;;5056855;28;20460;-71
2021/03/27 08:54:56;;;;;;;6.50;3.23;;;;;;;;;;5059018;28;20463;-71
2021/03/27 09:00:34;;;;;;;10.47;3.83;;;;;;;;;;5079804;28;20497;-72
2021/03/27 09:03:20;;;;;;;12.90;4.30;;;;;;;;;;5079609;28;20464;-72
2021/03/27 09:06:13;;;;;;;4.90;3.00;;;;;;;;;;5079445;28;20879;-72
2021/03/27 09:08:45;;;;;;;6.17;3.60;;;;;;;;;;5078803;28;20456;-71
2021/03/27 09:11:25;;;;;;;9.27;4.17;;;;;;;;;;5079280;28;20556;-72
2021/03/27 09:14:01;;;;;;;8.57;4.70;;;;;;;;;;5078907;28;20697;-71
2021/03/27 09:16:45;;;;;;;11.00;4.60;;;;;;;;;;5078584;28;20455;-73
2021/03/27 09:19:21;;;;;;;6.70;4.90;;;;;;;;;;5065461;28;20492;-73
2021/03/27 09:22:08;;;;;;;6.80;3.40;;;;;;;;;;5058883;28;20456;-71
2021/03/27 09:24:38;;;;;;;5.77;3.57;;;;;;;;;;5059654;28;20516;-69
2021/03/27 09:27:26;;;;;;;4.77;2.57;;;;;;;;;;5061048;28;20568;-71
2021/03/27 09:30:30;;;;;;;8.33;4.77;;;;;;;;;;5060279;28;20537;-71
2021/03/27 09:33:33;;;;;;;8.00;3.30;;;;;;;;;;5058687;28;20614;-71
2021/03/27 09:36:45;;;;;;;8.13;3.33;;;;;;;;;;5059335;28;20876;-71
2021/03/27 09:39:38;;;;;;;7.60;3.33;;;;;;;;;;5059465;28;20455;-72
2021/03/27 09:42:27;;;;;;;7.90;3.27;;;;;;;;;;5062853;28;20496;-71
2021/03/27 09:45:32;;;;;;;4.40;2.90;;;;;;;;;;5074430;28;20459;-72
2021/03/27 09:48:32;;;;;;;9.63;4.00;;;;;;;;;;5079142;28;20464;-72
2021/03/27 09:51:06;;;;;;;7.50;4.20;;;;;;;;;;5078138;28;20467;-71
2021/03/27 09:53:35;;;;;;;7.10;3.40;;;;;;;;;;5078726;28;20531;-71
2021/03/27 09:56:10;;;;;;;6.73;3.80;;;;;;;;;;5080134;28;20549;-71
2021/03/27 09:58:43;;;;;;;6.23;4.93;;;;;;;;;;5079125;28;20589;-71
2021/03/27 10:01:17;;;;;;;5.50;2.57;;;;;;;;;;5079169;28;20482;-71
2021/03/27 10:03:49;;;;;;;7.23;2.97;;;;;;;;;;5078194;28;20468;-71
2021/03/27 10:06:32;;;;;;;5.17;2.60;;;;;;;;;;5077275;28;20574;-72
2021/03/27 10:09:13;;;;;;;3.90;3.20;;;;;;;;;;5050828;28;20796;-72
2021/03/27 10:11:44;;;;;;;4.47;2.50;;;;;;;;;;5058540;28;20526;-71
2021/03/27 10:14:20;;;;;;;6.20;2.93;;;;;;;;;;5059858;28;20548;-70
2021/03/27 10:16:52;;;;;;;7.60;3.43;;;;;;;;;;5058038;28;20464;-71
2021/03/27 10:19:35;;;;;;;3.17;2.57;;;;;;;;;;5058637;28;20469;-71
2021/03/27 10:22:19;;;;;;;7.83;3.77;;;;;;;;;;5059107;28;20476;-70
2021/03/27 10:24:49;;;;;;;5.43;2.80;;;;;;;;;;5057396;28;20497;-70
2021/03/27 10:27:25;;;;;;;5.93;3.47;;;;;;;;;;5061309;28;20460;-70
2021/03/27 10:30:02;;;;;;;4.00;2.50;;;;;;;;;;5077782;28;20693;-70
2021/03/27 10:32:56;;;;;;;8.17;4.20;;;;;;;;;;5056424;28;20890;-71
2021/03/27 10:35:50;;;;;;;9.90;4.50;;;;;;;;;;5033177;28;20535;-71
2021/03/27 10:38:28;;;;;;;5.03;3.70;;;;;;;;;;5056820;28;20519;-70
2021/03/27 10:40:59;;;;;;;6.10;3.80;;;;;;;;;;5057043;28;20482;-70
2021/03/27 10:43:46;;;;;;;4.97;3.43;;;;;;;;;;5056882;28;20827;-70
2021/03/27 10:46:20;;;;;;;8.50;4.00;;;;;;;;;;5077236;28;20742;-70
2021/03/27 10:49:06;;;;;;;5.93;3.30;;;;;;;;;;5078685;28;20459;-70
2021/03/27 10:51:53;;;;;;;7.67;3.30;;;;;;;;;;5078175;28;20467;-71
2021/03/27 10:54:38;;;;;;;6.70;3.57;;;;;;;;;;5078397;28;20459;-71
2021/03/27 10:57:16;;;;;;;6.07;2.80;;;;;;;;;;5077979;28;20562;-71
2021/03/27 10:59:54;;;;;;;4.20;1.80;;;;;;;;;;5076944;28;20466;-71
2021/03/27 11:02:40;;;;;;;3.73;1.37;;;;;;;;;;5077700;28;20560;-71
2021/03/27 11:05:29;;;;;;;1.87;1.40;;;;;;;;;;5061377;28;20703;-71
2021/03/27 11:08:23;;;;;;;6.60;1.57;;;;;;;;;;5065831;28;20505;-71
2021/03/27 11:11:06;;;;;;;5.80;2.27;;;;;;;;;;5059233;28;20862;-70
2021/03/27 11:13:44;;;;;;;5.30;2.37;;;;;;;;;;5063300;28;20558;-73
2021/03/27 11:16:39;;;;;;;7.50;2.10;;;;;;;;;;5069424;28;20754;-72
2021/03/27 11:19:23;;;;;;;2.77;1.77;;;;;;;;;;5078430;28;20579;-71
2021/03/27 11:22:06;;;;;;;4.90;2.43;;;;;;;;;;5076996;28;20449;-70
2021/03/27 11:24:58;;;;;;;5.83;2.03;;;;;;;;;;5073049;28;20470;-70
2021/03/27 11:27:38;;;;;;;7.33;2.40;;;;;;;;;;5060482;28;20613;-70
2021/03/27 11:30:17;;;;;;;3.80;1.30;;;;;;;;;;5062793;28;20458;-70
2021/03/27 11:33:09;;;;;;;4.60;2.47;;;;;;;;;;5059109;28;20742;-72
2021/03/27 11:35:46;;;;;;;3.30;1.30;;;;;;;;;;5056504;28;20724;-71
2021/03/27 11:38:24;;;;;;;11.23;1.67;;;;;;;;;;5058190;28;20481;-71
2021/03/27 11:41:01;;;;;;;3.17;1.80;;;;;;;;;;5056786;28;20553;-72
2021/03/27 11:44:02;;;;;;;10.43;2.10;;;;;;;;;;5057989;28;20468;-73
2021/03/27 11:46:38;;;;;;;3.00;1.50;;;;;;;;;;5069348;28;20466;-73
2021/03/27 11:49:19;;;;;;;6.23;2.60;;;;;;;;;;5073471;28;20496;-72
2021/03/27 11:51:53;;;;;;;4.93;1.13;;;;;;;;;;5078309;28;20466;-71
2021/03/27 11:54:32;;;;;;;2.70;1.20;;;;;;;;;;5058263;28;20460;-71
2021/03/27 11:57:27;;;;;;;4.80;1.10;;;;;;;;;;5071117;28;20450;-71
2021/03/27 12:03:00;;;;;;;7.33;1.63;;;;;;;;;;5067960;28;20430;-73
2021/03/27 12:08:39;;;;;;;3.20;1.97;;;;;;;;;;5057736;28;20513;-71
2021/03/27 12:11:10;;;;;;;4.47;1.23;;;;;;;;;;5080190;28;20483;-71
2021/03/27 12:13:43;;;;;;;5.47;1.97;;;;;;;;;;5064736;28;20514;-71
2021/03/27 12:19:23;;;;;;;9.87;1.87;;;;;;;;;;5058126;28;20508;-70
2021/03/27 12:22:03;;;;;;;9.43;2.47;;;;;;;;;;5057884;28;20455;-69
2021/03/27 12:24:51;;;;;;;2.60;1.90;;;;;;;;;;5056008;28;20871;-70
2021/03/27 12:27:51;;;;;;;4.30;1.40;;;;;;;;;;5059583;28;20979;-72
2021/03/27 12:30:35;;;;;;;1.20;0.70;;;;;;;;;;5043802;28;20490;-72
2021/03/27 12:33:16;;;;;;;1.83;0.90;;;;;;;;;;5058400;28;20472;-72
2021/03/27 12:35:51;;;;;;;3.80;0.70;;;;;;;;;;5070181;28;20518;-72
2021/03/27 12:38:26;;;;;;;2.33;1.43;;;;;;;;;;5081583;28;20480;-72
2021/03/27 12:41:04;;;;;;;3.30;1.60;;;;;;;;;;5081667;28;20551;-72
2021/03/27 12:43:46;;;;;;;7.10;1.30;;;;;;;;;;5070147;28;21232;-71
2021/03/27 12:46:22;;;;;;;2.13;1.00;;;;;;;;;;5061735;28;20495;-71
2021/03/27 12:48:57;;;;;;;5.87;1.17;;;;;;;;;;5060366;28;20453;-71
2021/03/27 12:51:41;;;;;;;5.23;1.37;;;;;;;;;;5062125;28;20467;-71
2021/03/27 12:54:22;;;;;;;6.83;1.30;;;;;;;;;;5063805;28;20460;-71
2021/03/27 12:57:13;;;;;;;1.87;0.80;;;;;;;;;;5059166;28;20527;-70
2021/03/27 13:00:04;;;;;;;5.90;2.00;;;;;;;;;;5068918;28;20749;-70
2021/03/27 13:02:50;;;;;;;4.10;1.00;;;;;;;;;;5075491;28;20465;-71
2021/03/27 13:05:31;;;;;;;4.07;1.40;;;;;;;;;;5067719;28;20552;-71
2021/03/27 13:08:10;;;;;;;3.93;1.40;;;;;;;;;;5079311;28;20458;-71
2021/03/27 13:10:49;;;;;;;4.80;1.13;;;;;;;;;;5078441;28;20461;-71
2021/03/27 13:13:47;;;;;;;3.87;1.10;;;;;;;;;;5076039;28;20482;-71
2021/03/27 13:16:19;;;;;;;2.97;1.50;;;;;;;;;;5076131;28;20931;-71
2021/03/27 13:18:53;;;;;;;5.50;1.40;;;;;;;;;;5080382;28;20492;-71
2021/03/27 13:21:36;;;;;;;4.17;2.07;;;;;;;;;;5079825;28;20462;-71
2021/03/27 13:24:12;;;;;;;7.20;2.00;;;;;;;;;;5080000;28;20866;-71
2021/03/27 13:26:48;;;;;;;4.93;1.30;;;;;;;;;;5071196;28;20511;-71
2021/03/27 13:29:39;;;;;;;6.70;1.70;;;;;;;;;;5076988;28;20456;-72
2021/03/27 13:32:12;;;;;;;4.20;1.70;;;;;;;;;;5068732;28;20459;-71
2021/03/27 13:34:44;;;;;;;4.43;1.40;;;;;;;;;;5070816;28;20490;-72
2021/03/27 13:37:18;;;;;;;4.00;1.30;;;;;;;;;;5071101;28;20529;-71
2021/03/27 13:39:50;;;;;;;3.07;0.90;;;;;;;;;;5069094;28;20458;-71
2021/03/27 13:42:35;;;;;;;4.20;1.33;;;;;;;;;;5069754;28;20457;-71
2021/03/27 13:45:15;;;;;;;2.93;1.00;;;;;;;;;;5074107;28;20469;-71
2021/03/27 13:47:46;;;;;;;2.23;1.07;;;;;;;;;;5079395;28;20490;-71
2021/03/27 13:50:27;;;;;;;9.90;0.80;;;;;;;;;;5066756;28;20553;-72
2021/03/27 13:53:03;;;;;;;6.57;1.97;;;;;;;;;;5060525;28;20460;-72
2021/03/27 13:55:40;;;;;;;3.10;1.30;;;;;;;;;;5062583;28;20487;-73
2021/03/27 13:58:17;;;;;;;7.00;1.90;;;;;;;;;;5064897;28;20481;-73
2021/03/27 14:00:51;;;;;;;1.93;1.00;;;;;;;;;;5078063;28;20998;-72
2021/03/27 14:03:29;;;;;;;2.57;1.27;;;;;;;;;;5059398;28;20468;-73
2021/03/27 14:06:05;;;;;;;2.70;1.07;;;;;;;;;;5058060;28;20894;-73
2021/03/27 14:09:11;;;;;;;2.80;1.07;;;;;;;;;;5066230;28;20754;-73
2021/03/27 14:11:49;;;;;;;4.20;1.47;;;;;;;;;;5067883;28;20468;-71
2021/03/27 14:14:21;;;;;;;2.30;1.63;;;;;;;;;;5058226;28;20540;-71
2021/03/27 14:17:10;;;;;;;4.40;0.80;;;;;;;;;;5055441;28;20532;-71
2021/03/27 14:20:02;;;;;;;2.80;1.40;;;;;;;;;;5078324;28;20459;-71
2021/03/27 14:22:41;;;;;;;1.73;0.80;;;;;;;;;;5062613;28;20466;-70
2021/03/27 14:25:19;;;;;;;4.23;1.83;;;;;;;;;;5057915;28;20712;-72
2021/03/27 14:27:50;;;;;;;2.50;1.00;;;;;;;;;;5058057;28;20515;-72
2021/03/27 14:30:41;;;;;;;2.80;0.90;;;;;;;;;;5062246;28;20499;-72
2021/03/27 14:33:15;;;;;;;2.60;1.47;;;;;;;;;;5066244;28;20504;-71
2021/03/27 14:35:55;;;;;;;3.57;0.93;;;;;;;;;;5063188;28;20462;-72
2021/03/27 14:39:03;;;;;;;4.40;1.57;;;;;;;;;;5074102;28;20476;-72
2021/03/27 14:41:38;;;;;;;5.37;1.50;;;;;;;;;;5020074;28;20464;-71
2021/03/27 14:44:08;;;;;;;5.30;1.77;;;;;;;;;;5057459;28;20462;-71
2021/03/27 14:47:12;;;;;;;1.50;1.23;;;;;;;;;;5066481;28;20517;-71
2021/03/27 14:49:50;;;;;;;5.03;2.13;;;;;;;;;;5078362;28;20452;-71
2021/03/27 14:52:21;;;;;;;4.17;1.20;;;;;;;;;;5079783;28;20452;-72
2021/03/27 14:55:06;;;;;;;7.33;1.67;;;;;;;;;;5078111;28;20467;-71
2021/03/27 14:57:42;;;;;;;5.50;1.70;;;;;;;;;;5076550;28;21069;-71
2021/03/27 15:00:29;;;;;;;7.23;1.17;;;;;;;;;;5063794;28;20459;-72
2021/03/27 15:03:00;;;;;;;1.63;0.97;;;;;;;;;;5068069;28;20448;-72
2021/03/27 15:05:32;;;;;;;6.10;1.30;;;;;;;;;;5078095;28;20848;-72
2021/03/27 15:08:03;;;;;;;1.80;0.60;;;;;;;;;;5079026;28;20545;-72
2021/03/27 15:10:50;;;;;;;4.23;1.70;;;;;;;;;;5078451;28;20442;-71
2021/03/27 15:13:46;;;;;;;2.27;1.47;;;;;;;;;;5057789;28;20572;-72
2021/03/27 15:16:26;;;;;;;5.90;1.13;;;;;;;;;;5057082;28;20470;-72
2021/03/27 15:18:56;;;;;;;2.40;1.00;;;;;;;;;;5057326;28;20483;-72
2021/03/27 15:21:32;;;;;;;2.43;0.90;;;;;;;;;;5057639;28;20707;-71
2021/03/27 15:24:29;;;;;;;3.43;1.10;;;;;;;;;;5057790;28;20803;-71
2021/03/27 15:27:16;;;;;;;2.53;0.70;;;;;;;;;;5065368;28;20449;-72
2021/03/27 15:29:53;;;;;;;2.27;1.10;;;;;;;;;;5059785;28;21071;-72
2021/03/27 15:32:22;;;;;;;5.67;1.23;;;;;;;;;;5069344;28;20775;-72
2021/03/27 15:34:58;;;;;;;5.67;1.27;;;;;;;;;;5079026;28;20461;-72
2021/03/27 15:37:27;;;;;;;6.80;2.43;;;;;;;;;;5078744;28;20445;-72
2021/03/27 15:39:57;;;;;;;5.53;2.13;;;;;;;;;;5078217;28;20465;-71
2021/03/27 15:42:27;;;;;;;9.63;2.10;;;;;;;;;;5079193;28;21080;-70
2021/03/27 15:45:22;;;;;;;3.33;1.37;;;;;;;;;;5077380;28;20464;-71
2021/03/27 15:47:58;;;;;;;2.33;1.27;;;;;;;;;;4996408;28;20948;-71
2021/03/27 15:50:29;;;;;;;4.57;1.27;;;;;;;;;;5009785;28;20484;-71
2021/03/27 15:53:06;;;;;;;5.27;0.97;;;;;;;;;;5075882;28;20445;-71
2021/03/27 15:55:42;;;;;;;10.70;1.50;;;;;;;;;;5060826;28;20458;-72
2021/03/27 15:58:21;;;;;;;15.00;3.00;;;;;;;;;;5064722;28;21600;-72
2021/03/27 16:00:50;;;;;;;4.73;1.57;;;;;;;;;;5067168;28;20471;-71
2021/03/27 16:03:37;;;;;;;3.03;1.13;;;;;;;;;;5055920;28;20462;-71